Time;durP1;ratioP1;P1;durP2;ratioP2;P2;SDS_P1;SDS_P2;PMS_P1;PMS_P2;Temp;Humidity;BMP_temperature;BMP_pressure;BME280_temperature;BME280_humidity;BME280_pressure;Samples;Min_cycle;Max_cycle;Signal;HPM_P1;HPM_P2
2023/07/31 00:01:37;;;;;;;0.10;0.10;;;;;;;15.55;100.00;96326.47;5032133;28;20045;-77
2023/07/31 00:04:23;;;;;;;0.10;0.10;;;;;;;15.48;100.00;96323.31;4996686;28;20053;-77
2023/07/31 00:07:09;;;;;;;0.10;0.10;;;;;;;15.44;100.00;96314.19;4993544;28;20771;-78
2023/07/31 00:09:56;;;;;;;0.10;0.10;;;;;;;15.44;100.00;96303.41;4991755;28;20042;-78
2023/07/31 00:12:43;;;;;;;0.10;0.10;;;;;;;15.50;100.00;96307.66;4991999;28;20080;-77
2023/07/31 00:15:29;;;;;;;0.10;0.10;;;;;;;15.46;100.00;96296.63;4991403;28;20050;-77
2023/07/31 00:18:15;;;;;;;0.15;0.15;;;;;;;15.44;100.00;96303.41;4995406;28;20049;-77
2023/07/31 00:21:01;;;;;;;0.20;0.20;;;;;;;15.42;100.00;96301.00;4998201;28;20089;-77
2023/07/31 00:23:47;;;;;;;0.10;0.10;;;;;;;15.40;100.00;96296.94;4995215;28;20571;-78
2023/07/31 00:26:33;;;;;;;0.00;0.00;;;;;;;15.43;100.00;96285.63;4998723;28;20479;-77
2023/07/31 00:29:18;;;;;;;0.10;0.10;;;;;;;15.46;100.00;96285.84;4996555;28;20045;-78
2023/07/31 00:32:07;;;;;;;0.10;0.10;;;;;;;15.48;100.00;96280.16;4994769;28;20149;-76
2023/07/31 00:34:53;;;;;;;0.20;0.20;;;;;;;15.44;100.00;96273.75;4996527;28;20037;-78
2023/07/31 00:37:39;;;;;;;0.20;0.20;;;;;;;15.42;100.00;96274.03;4995463;28;20046;-77
2023/07/31 00:40:25;;;;;;;0.20;0.20;;;;;;;15.50;100.00;96270.72;5009054;28;20132;-77
2023/07/31 00:43:11;;;;;;;0.10;0.10;;;;;;;15.51;100.00;96277.72;4994157;28;20053;-78
2023/07/31 00:45:56;;;;;;;0.10;0.10;;;;;;;15.48;100.00;96272.06;4999204;28;20038;-78
2023/07/31 00:48:43;;;;;;;0.20;0.20;;;;;;;15.48;100.00;96272.06;5008860;28;20042;-78
2023/07/31 00:51:28;;;;;;;0.20;0.20;;;;;;;15.48;100.00;96263.97;4996661;28;20045;-76
2023/07/31 00:54:16;;;;;;;0.10;0.10;;;;;;;15.52;100.00;96267.72;5007659;28;20209;-78
2023/07/31 00:57:02;;;;;;;0.10;0.10;;;;;;;15.53;100.00;96269.34;4995159;28;20052;-76
2023/07/31 00:59:51;;;;;;;0.10;0.10;;;;;;;15.54;100.00;96269.03;4998719;28;20165;-78
2023/07/31 01:02:37;;;;;;;0.13;0.13;;;;;;;15.56;100.00;96264.19;4995932;28;20468;-78
2023/07/31 01:05:47;;;;;;;0.20;0.20;;;;;;;15.37;100.00;96265.97;4992941;28;20112;-78
2023/07/31 01:08:42;;;;;;;;;;;;;;;15.34;100.00;96261.16;4995516;28;20042;-78
2023/07/31 01:11:30;;;;;;;0.10;0.10;;;;;;;15.43;100.00;96264.06;5010133;28;19970;-77
2023/07/31 01:14:16;;;;;;;0.10;0.10;;;;;;;15.40;100.00;96264.59;4994909;28;20722;-78
2023/07/31 01:17:02;;;;;;;0.10;0.10;;;;;;;15.41;100.00;96264.34;5005951;28;20157;-76
2023/07/31 01:19:49;;;;;;;0.10;0.10;;;;;;;15.36;100.00;96258.97;4995055;28;20100;-77
2023/07/31 01:23:03;;;;;;;0.10;0.10;;;;;;;15.29;100.00;96256.59;4992487;28;20436;-76
2023/07/31 01:25:57;;;;;;;0.10;0.10;;;;;;;15.27;100.00;96245.31;4995127;28;20046;-78
2023/07/31 01:28:53;;;;;;;0.10;0.10;;;;;;;15.39;100.00;96257.59;4993356;28;20554;-79
2023/07/31 01:31:41;;;;;;;0.13;0.13;;;;;;;15.40;100.00;96256.50;4979884;28;20045;-77
2023/07/31 01:34:28;;;;;;;0.20;0.20;;;;;;;15.42;100.00;96254.34;4996837;28;20491;-78
2023/07/31 01:37:14;;;;;;;0.10;0.10;;;;;;;15.45;100.00;96245.69;4994857;28;20045;-77
2023/07/31 01:40:00;;;;;;;0.10;0.10;;;;;;;15.42;100.00;96240.88;4995613;28;20487;-78
2023/07/31 01:42:46;;;;;;;0.10;0.10;;;;;;;15.32;100.00;96249.84;4992684;28;20116;-78
2023/07/31 01:45:32;;;;;;;0.10;0.10;;;;;;;15.46;100.00;96247.28;4997077;28;20628;-78
2023/07/31 01:48:18;;;;;;;0.13;0.13;;;;;;;15.34;100.00;96239.59;4996939;28;20132;-76
2023/07/31 01:51:04;;;;;;;0.10;0.10;;;;;;;15.30;100.00;96227.75;4995112;28;20591;-77
2023/07/31 01:53:50;;;;;;;0.20;0.20;;;;;;;15.18;100.00;96238.94;4993807;28;20046;-77
2023/07/31 01:56:35;;;;;;;0.10;0.10;;;;;;;15.17;100.00;96234.59;4997790;28;20455;-78
2023/07/31 01:59:21;;;;;;;0.10;0.10;;;;;;;15.26;100.00;96243.72;4993445;28;20407;-79
2023/07/31 02:02:07;;;;;;;0.10;0.10;;;;;;;15.28;100.00;96241.53;4993556;28;20058;-77
2023/07/31 02:04:53;;;;;;;0.10;0.10;;;;;;;15.25;100.00;96235.88;5030279;28;20053;-78
2023/07/31 02:07:41;;;;;;;0.10;0.10;;;;;;;15.30;100.00;96235.84;5033645;28;20807;-77
2023/07/31 02:10:26;;;;;;;0.10;0.10;;;;;;;15.33;100.00;96228.00;5034556;28;20048;-77
2023/07/31 02:13:12;;;;;;;0.10;0.10;;;;;;;15.25;100.00;96220.53;5032461;28;20515;-78
2023/07/31 02:15:58;;;;;;;0.10;0.10;;;;;;;15.26;100.00;96219.44;5032918;28;20736;-78
2023/07/31 02:18:45;;;;;;;0.10;0.10;;;;;;;15.28;100.00;96221.84;5030989;28;20055;-78
2023/07/31 02:21:32;;;;;;;0.10;0.10;;;;;;;15.30;100.00;96223.16;5034464;28;20052;-79
2023/07/31 02:24:18;;;;;;;0.10;0.10;;;;;;;15.28;100.00;96214.56;5034612;28;20088;-78
2023/07/31 02:27:04;;;;;;;0.10;0.10;;;;;;;15.17;100.00;96214.94;5035831;28;20243;-78
2023/07/31 02:29:50;;;;;;;0.10;0.10;;;;;;;15.02;100.00;96199.72;5033450;28;20045;-79
2023/07/31 02:32:35;;;;;;;0.10;0.10;;;;;;;15.11;100.00;96214.19;5033279;28;20074;-78
2023/07/31 02:35:22;;;;;;;0.10;0.10;;;;;;;15.19;100.00;96207.38;5035285;28;20090;-79
2023/07/31 02:38:08;;;;;;;0.13;0.13;;;;;;;15.18;100.00;96214.69;5033513;28;20135;-79
2023/07/31 02:40:54;;;;;;;0.10;0.10;;;;;;;15.12;100.00;96218.50;5036509;28;20048;-78
2023/07/31 02:43:40;;;;;;;0.10;0.10;;;;;;;15.17;100.00;96210.34;5031892;28;20045;-77
2023/07/31 02:46:25;;;;;;;0.10;0.10;;;;;;;15.20;100.00;96220.56;5034829;28;20044;-77
2023/07/31 02:49:11;;;;;;;0.10;0.10;;;;;;;15.24;100.00;96229.69;5032834;28;20044;-78
2023/07/31 02:51:57;;;;;;;0.00;0.00;;;;;;;15.19;100.00;96221.66;5031588;28;20118;-79
2023/07/31 02:54:43;;;;;;;0.10;0.10;;;;;;;15.20;100.00;96231.34;5032237;28;20072;-78
2023/07/31 02:57:29;;;;;;;0.10;0.10;;;;;;;15.16;100.00;96230.31;5034882;28;20250;-77
2023/07/31 03:00:15;;;;;;;0.10;0.10;;;;;;;15.06;100.00;96227.69;5033726;28;20037;-77
2023/07/31 03:03:01;;;;;;;0.10;0.10;;;;;;;15.11;100.00;96224.19;5032127;28;20418;-79
2023/07/31 03:05:47;;;;;;;0.10;0.10;;;;;;;15.15;100.00;96220.63;5034873;28;20033;-78
2023/07/31 03:08:33;;;;;;;0.10;0.10;;;;;;;15.12;100.00;96215.81;5033232;28;20067;-78
2023/07/31 03:11:19;;;;;;;0.10;0.10;;;;;;;15.15;100.00;96220.63;5033138;28;20081;-77
2023/07/31 03:14:05;;;;;;;0.10;0.10;;;;;;;15.15;100.00;96217.91;5032783;28;20792;-77
2023/07/31 03:16:51;;;;;;;0.10;0.10;;;;;;;15.19;100.00;96210.88;5015245;28;20041;-78
2023/07/31 03:19:37;;;;;;;0.15;0.15;;;;;;;15.17;100.00;96215.75;5032830;28;20055;-77
2023/07/31 03:22:22;;;;;;;0.10;0.10;;;;;;;15.09;100.00;96215.53;5029826;28;20075;-79
2023/07/31 03:25:10;;;;;;;0.10;0.10;;;;;;;15.15;100.00;96212.53;5022883;28;20531;-77
2023/07/31 03:27:56;;;;;;;0.10;0.10;;;;;;;15.17;100.00;96214.94;5033853;28;20076;-79
2023/07/31 03:30:41;;;;;;;0.10;0.10;;;;;;;15.06;100.00;96211.53;5015851;28;20506;-76
2023/07/31 03:33:27;;;;;;;0.10;0.10;;;;;;;15.08;100.00;96209.34;5030229;28;20044;-76
2023/07/31 03:36:13;;;;;;;0.10;0.10;;;;;;;15.07;100.00;96198.88;5034088;28;20063;-76
2023/07/31 03:38:59;;;;;;;0.10;0.10;;;;;;;14.91;100.00;96203.56;5017414;28;20049;-77
2023/07/31 03:41:46;;;;;;;0.10;0.10;;;;;;;15.02;100.00;96200.53;5032367;28;20128;-77
2023/07/31 03:44:32;;;;;;;0.10;0.10;;;;;;;15.04;100.00;96201.03;5017379;28;20092;-78
2023/07/31 03:47:18;;;;;;;0.10;0.10;;;;;;;15.13;100.00;96197.75;5015532;28;20037;-79
2023/07/31 03:50:04;;;;;;;0.10;0.10;;;;;;;15.04;100.00;96195.66;5033732;28;20044;-78
2023/07/31 03:52:51;;;;;;;0.10;0.10;;;;;;;14.94;100.00;96193.06;5040924;28;20545;-78
2023/07/31 03:55:39;;;;;;;0.10;0.10;;;;;;;14.80;100.00;96191.28;5039802;28;20217;-77
2023/07/31 03:58:25;;;;;;;0.10;0.10;;;;;;;14.81;100.00;96190.19;5040889;28;20369;-78
2023/07/31 04:01:11;;;;;;;0.10;0.10;;;;;;;14.86;100.00;96192.84;5025538;28;20049;-78
2023/07/31 04:03:57;;;;;;;0.10;0.10;;;;;;;14.76;100.00;96181.06;5041359;28;20045;-78
2023/07/31 04:06:42;;;;;;;0.10;0.10;;;;;;;14.75;100.00;96184.03;5040951;28;20041;-76
2023/07/31 04:09:28;;;;;;;0.10;0.10;;;;;;;14.77;100.00;96182.66;5040444;28;20900;-77
2023/07/31 04:12:14;;;;;;;0.10;0.10;;;;;;;14.79;100.00;96178.91;5041450;28;20143;-77
2023/07/31 04:15:00;;;;;;;0.10;0.10;;;;;;;14.65;100.00;96165.28;5042282;28;20159;-78
2023/07/31 04:17:46;;;;;;;0.10;0.10;;;;;;;14.64;100.00;96167.16;5040185;28;20466;-77
2023/07/31 04:20:32;;;;;;;0.10;0.10;;;;;;;14.62;100.00;96163.94;5042874;28;20068;-76
2023/07/31 04:23:17;;;;;;;0.10;0.10;;;;;;;14.68;100.00;96170.09;5043195;28;20056;-77
2023/07/31 04:26:03;;;;;;;0.10;0.10;;;;;;;14.69;100.00;96175.19;5041552;28;20041;-78
2023/07/31 04:28:49;;;;;;;0.10;0.10;;;;;;;14.72;100.00;96160.38;5041258;28;20135;-78
2023/07/31 04:31:35;;;;;;;0.10;0.10;;;;;;;14.74;100.00;96175.16;5041652;28;20316;-76
2023/07/31 04:34:21;;;;;;;0.20;0.20;;;;;;;14.70;100.00;96170.59;5040723;28;20041;-78
2023/07/31 04:37:06;;;;;;;0.10;0.10;;;;;;;14.71;100.00;96167.66;5044068;28;20051;-79
2023/07/31 04:39:52;;;;;;;0.10;0.10;;;;;;;14.71;100.00;96169.53;5042271;28;20041;-77
2023/07/31 04:42:38;;;;;;;0.10;0.10;;;;;;;14.67;100.00;96171.19;5039336;28;20037;-77
2023/07/31 04:45:24;;;;;;;0.10;0.10;;;;;;;14.67;100.00;96173.88;5040439;28;20040;-77
2023/07/31 04:48:09;;;;;;;0.10;0.10;;;;;;;14.72;100.00;96174.66;5040280;28;20099;-78
2023/07/31 04:50:55;;;;;;;0.10;0.10;;;;;;;14.75;100.00;96176.75;5041272;28;20040;-77
2023/07/31 04:53:41;;;;;;;0.10;0.10;;;;;;;14.68;100.00;96168.19;5039970;28;20131;-78
2023/07/31 04:56:27;;;;;;;0.10;0.10;;;;;;;14.76;100.00;96175.69;5042191;28;20052;-77
2023/07/31 04:59:13;;;;;;;0.10;0.10;;;;;;;14.67;100.00;96168.50;5040036;28;20118;-80
2023/07/31 05:01:59;;;;;;;0.10;0.10;;;;;;;14.67;100.00;96182.75;5041744;28;20045;-78
2023/07/31 05:04:45;;;;;;;0.10;0.10;;;;;;;14.64;100.00;96169.84;5039559;28;20119;-79
2023/07/31 05:07:30;;;;;;;0.03;0.03;;;;;;;14.66;100.00;96172.28;5037968;28;20161;-78
2023/07/31 05:10:16;;;;;;;0.00;0.00;;;;;;;14.68;100.00;96167.41;5037871;28;20040;-78
2023/07/31 05:13:02;;;;;;;0.10;0.10;;;;;;;14.75;100.00;96170.56;5037903;28;20252;-79
2023/07/31 05:15:49;;;;;;;0.10;0.10;;;;;;;14.68;100.00;96165.50;5039854;28;20045;-79
2023/07/31 05:18:35;;;;;;;0.10;0.10;;;;;;;14.62;100.00;96165.81;5022344;28;20681;-78
2023/07/31 05:21:21;;;;;;;0.10;0.10;;;;;;;14.72;100.00;96169.25;5037630;28;20422;-78
2023/07/31 05:24:06;;;;;;;0.10;0.10;;;;;;;14.68;100.00;96170.09;5037344;28;20116;-77
2023/07/31 05:26:52;;;;;;;0.08;0.08;;;;;;;14.61;100.00;96175.78;5036649;28;20051;-77
2023/07/31 05:29:40;;;;;;;0.10;0.10;;;;;;;14.73;100.00;96170.88;5037826;28;20045;-77
2023/07/31 05:32:26;;;;;;;0.10;0.10;;;;;;;14.75;100.00;96171.38;5032752;28;20049;-77
2023/07/31 05:35:12;;;;;;;0.10;0.10;;;;;;;14.77;100.00;96166.50;5039949;28;20099;-77
2023/07/31 05:37:57;;;;;;;0.00;0.00;;;;;;;14.82;100.00;96167.56;5035878;28;20451;-76
2023/07/31 05:40:43;;;;;;;0.13;0.13;;;;;;;14.75;100.00;96152.53;5038108;28;20095;-78
2023/07/31 05:43:29;;;;;;;0.08;0.08;;;;;;;14.88;100.00;96158.34;5036305;28;20495;-77
2023/07/31 05:46:15;;;;;;;0.10;0.10;;;;;;;14.67;100.00;96150.44;5023231;28;20040;-78
2023/07/31 05:49:01;;;;;;;0.10;0.10;;;;;;;14.66;100.00;96154.22;5036049;28;20053;-77
2023/07/31 05:51:47;;;;;;;0.10;0.10;;;;;;;14.74;100.00;96160.88;5039545;28;20505;-78
2023/07/31 05:54:33;;;;;;;0.10;0.10;;;;;;;14.85;100.00;96146.25;5035897;28;20037;-77
2023/07/31 05:57:19;;;;;;;0.10;0.10;;;;;;;15.07;100.00;96134.19;5039399;28;20059;-77
2023/07/31 06:00:06;;;;;;;0.10;0.10;;;;;;;15.41;100.00;96131.41;5035816;28;20037;-77
2023/07/31 06:02:53;;;;;;;0.10;0.10;;;;;;;15.19;100.00;96142.72;5035581;28;20953;-78
2023/07/31 06:05:39;;;;;;;0.10;0.10;;;;;;;14.98;100.00;96144.78;5036371;28;20055;-77
2023/07/31 06:08:25;;;;;;;0.00;0.00;;;;;;;14.94;100.00;96138.34;5034640;28;20032;-77
2023/07/31 06:11:11;;;;;;;0.17;0.17;;;;;;;14.91;100.00;96147.81;5037145;28;20139;-76
2023/07/31 06:13:57;;;;;;;0.15;0.15;;;;;;;14.75;100.00;96149.84;5038726;28;20040;-79
2023/07/31 06:16:44;;;;;;;0.10;0.10;;;;;;;14.92;100.00;96133.25;5035383;28;20172;-78
2023/07/31 06:19:30;;;;;;;0.10;0.10;;;;;;;15.11;100.00;96124.47;5033274;28;20399;-77
2023/07/31 06:22:16;;;;;;;0.10;0.10;;;;;;;15.21;100.00;96127.84;5035466;28;20505;-78
2023/07/31 06:25:02;;;;;;;0.10;0.10;;;;;;;15.19;100.00;96118.47;5036718;28;20048;-76
2023/07/31 06:27:47;;;;;;;0.10;0.10;;;;;;;15.27;100.00;96132.09;5035212;28;20083;-79
2023/07/31 06:30:33;;;;;;;0.10;0.10;;;;;;;15.21;100.00;96110.88;5034722;28;20438;-78
2023/07/31 06:33:19;;;;;;;0.10;0.10;;;;;;;15.31;100.00;96124.25;5033166;28;20561;-77
2023/07/31 06:36:06;;;;;;;0.10;0.10;;;;;;;15.45;100.00;96127.06;5035628;28;20178;-78
2023/07/31 06:38:52;;;;;;;0.10;0.10;;;;;;;15.50;100.00;96118.91;5035974;28;20127;-77
2023/07/31 06:41:38;;;;;;;0.10;0.10;;;;;;;15.45;100.00;96109.00;5033804;28;20036;-77
2023/07/31 06:44:27;;;;;;;0.17;0.17;;;;;;;15.32;100.00;96110.47;5017211;28;20483;-77
2023/07/31 06:47:13;;;;;;;0.10;0.10;;;;;;;15.51;100.00;96120.53;5023015;28;20045;-78
2023/07/31 06:49:58;;;;;;;0.10;0.10;;;;;;;15.19;100.00;96124.66;5032951;28;20063;-78
2023/07/31 06:52:44;;;;;;;0.10;0.10;;;;;;;15.21;100.00;96117.06;5016476;28;20037;-76
2023/07/31 06:55:30;;;;;;;0.10;0.10;;;;;;;15.19;100.00;96107.69;5033534;28;20530;-78
2023/07/31 06:58:16;;;;;;;0.10;0.10;;;;;;;15.09;100.00;96107.75;5033650;28;20403;-77
2023/07/31 07:01:02;;;;;;;0.10;0.10;;;;;;;14.97;100.00;96116.25;5033621;28;20044;-77
2023/07/31 07:03:50;;;;;;;0.10;0.10;;;;;;;14.95;100.00;96108.44;5032184;28;20526;-76
2023/07/31 07:06:36;;;;;;;0.10;0.10;;;;;;;14.91;100.00;96109.28;5035617;28;20029;-78
2023/07/31 07:09:22;;;;;;;0.10;0.10;;;;;;;15.02;100.00;96116.22;5030971;28;20434;-77
2023/07/31 07:12:08;;;;;;;0.10;0.10;;;;;;;15.26;100.00;96119.72;5033729;28;20045;-77
2023/07/31 07:14:54;;;;;;;0.10;0.10;;;;;;;15.33;100.00;96114.78;5035527;28;20048;-77
2023/07/31 07:17:40;;;;;;;0.20;0.20;;;;;;;15.31;100.00;96118.84;5035529;28;20477;-78
2023/07/31 07:20:26;;;;;;;0.00;0.00;;;;;;;15.45;100.00;96119.78;5032545;28;20377;-78
2023/07/31 07:23:12;;;;;;;0.10;0.10;;;;;;;15.69;100.00;96111.69;5033862;28;20123;-77
2023/07/31 07:25:57;;;;;;;0.10;0.10;;;;;;;15.49;100.00;96111.94;5032676;28;20053;-78
2023/07/31 07:28:43;;;;;;;0.10;0.10;;;;;;;15.60;100.00;96108.00;5034526;28;20047;-77
2023/07/31 07:31:29;;;;;;;0.10;0.10;;;;;;;15.70;100.00;96099.00;5032263;28;20045;-79
2023/07/31 07:34:15;;;;;;;0.10;0.10;;;;;;;15.98;100.00;96098.09;5034406;28;20068;-79
2023/07/31 07:37:01;;;;;;;0.10;0.10;;;;;;;16.02;100.00;96098.31;5033825;28;20045;-80
2023/07/31 07:39:47;;;;;;;0.10;0.10;;;;;;;16.06;100.00;96093.94;5035740;28;20114;-78
2023/07/31 07:42:33;;;;;;;0.10;0.10;;;;;;;16.25;100.00;96100.13;5032811;28;20044;-78
2023/07/31 07:45:18;;;;;;;0.10;0.10;;;;;;;15.96;100.00;96094.09;5010386;28;20053;-78
2023/07/31 07:48:04;;;;;;;0.10;0.10;;;;;;;15.98;100.00;96108.09;5033979;28;20137;-80
2023/07/31 07:50:50;;;;;;;0.10;0.10;;;;;;;16.26;100.00;96090.94;5031435;28;20040;-79
2023/07/31 07:53:36;;;;;;;0.10;0.10;;;;;;;16.46;100.00;96097.13;5034639;28;20436;-78
2023/07/31 07:56:22;;;;;;;0.20;0.20;;;;;;;16.37;100.00;96111.28;5033478;28;20051;-78
2023/07/31 07:59:08;;;;;;;0.10;0.10;;;;;;;16.18;100.00;96107.78;5033408;28;20426;-78
2023/07/31 08:01:54;;;;;;;0.10;0.10;;;;;;;16.16;100.00;96105.38;5032702;28;20115;-79
2023/07/31 08:04:40;;;;;;;0.15;0.15;;;;;;;16.23;100.00;96099.63;5034365;28;20488;-79
2023/07/31 08:07:26;;;;;;;0.10;0.10;;;;;;;16.36;100.00;96100.78;5030213;28;20107;-79
2023/07/31 08:10:11;;;;;;;0.05;0.05;;;;;;;16.85;100.00;96102.19;5029187;28;20431;-79
2023/07/31 08:12:57;;;;;;;0.20;0.20;;;;;;;16.79;100.00;96106.84;5032110;28;20044;-78
2023/07/31 08:15:43;;;;;;;0.10;0.10;;;;;;;16.48;100.00;96105.72;5033801;28;21599;-78
2023/07/31 08:18:31;;;;;;;0.20;0.20;;;;;;;16.61;100.00;96099.56;5018884;28;20114;-79
2023/07/31 08:21:16;;;;;;;0.10;0.10;;;;;;;16.88;100.00;96099.66;5034245;28;20049;-77
2023/07/31 08:24:02;;;;;;;0.10;0.10;;;;;;;16.78;100.00;96113.34;5032214;28;20639;-77
2023/07/31 08:26:48;;;;;;;0.10;0.10;;;;;;;16.50;100.00;96100.81;5031118;28;20441;-78
2023/07/31 08:29:34;;;;;;;0.10;0.10;;;;;;;16.73;100.00;96091.84;5032038;28;20102;-78
2023/07/31 08:32:20;;;;;;;0.10;0.10;;;;;;;16.37;100.00;96103.19;5030399;28;20102;-78
2023/07/31 08:35:06;;;;;;;0.10;0.10;;;;;;;16.36;100.00;96093.50;5034687;28;20087;-80
2023/07/31 08:37:54;;;;;;;0.10;0.10;;;;;;;16.13;100.00;96079.00;5033454;28;20075;-78
2023/07/31 08:40:40;;;;;;;0.10;0.10;;;;;;;15.92;100.00;96090.34;5036806;28;20041;-79
2023/07/31 08:43:27;;;;;;;0.10;0.10;;;;;;;15.83;100.00;96088.31;5037190;28;20734;-78
2023/07/31 08:46:16;;;;;;;0.03;0.03;;;;;;;15.85;100.00;96086.13;5037110;28;20055;-79
2023/07/31 08:49:05;;;;;;;0.10;0.10;;;;;;;15.76;100.00;96084.38;5036687;28;20044;-79
2023/07/31 08:51:52;;;;;;;0.10;0.10;;;;;;;15.80;100.00;96091.59;5037100;28;20037;-78
2023/07/31 08:54:38;;;;;;;0.00;0.00;;;;;;;15.51;100.00;96098.94;5037619;28;20040;-78
2023/07/31 08:57:24;;;;;;;0.10;0.10;;;;;;;15.37;100.00;96088.06;5038128;28;20091;-79
2023/07/31 09:00:11;;;;;;;0.10;0.10;;;;;;;15.35;100.00;96073.25;5034921;28;20564;-80
2023/07/31 09:03:09;;;;;;;0.20;0.20;;;;;;;15.44;100.00;96087.72;5034425;28;20441;-80
2023/07/31 09:05:57;;;;;;;0.10;0.10;;;;;;;15.52;100.00;96078.97;5023469;28;20068;-79
2023/07/31 09:08:43;;;;;;;0.10;0.10;;;;;;;15.74;100.00;96076.56;5036689;28;20132;-79
2023/07/31 09:11:29;;;;;;;0.10;0.10;;;;;;;15.83;100.00;96063.22;5023770;28;20041;-79
2023/07/31 09:14:16;;;;;;;0.15;0.15;;;;;;;16.19;100.00;96077.03;5037400;28;20044;-80
2023/07/31 09:17:02;;;;;;;0.10;0.10;;;;;;;16.21;100.00;96065.94;5019600;28;20312;-79
2023/07/31 09:19:47;;;;;;;0.10;0.10;;;;;;;16.46;100.00;96065.50;5034582;28;20078;-79
2023/07/31 09:22:35;;;;;;;0.10;0.10;;;;;;;16.47;100.00;96072.50;5037517;28;20491;-79
2023/07/31 09:25:24;;;;;;;0.10;0.10;;;;;;;16.02;100.00;96061.31;5036594;28;20191;-79
2023/07/31 09:28:12;;;;;;;0.10;0.10;;;;;;;15.92;100.00;96066.06;5036877;28;20140;-80
2023/07/31 09:30:58;;;;;;;0.10;0.10;;;;;;;15.93;100.00;96046.09;5036971;28;20099;-80
2023/07/31 09:33:56;;;;;;;0.10;0.10;;;;;;;15.74;100.00;96060.38;5036266;28;20735;-79
2023/07/31 09:36:43;;;;;;;0.10;0.10;;;;;;;15.75;100.00;96051.19;5034129;28;20131;-79
2023/07/31 09:39:29;;;;;;;0.10;0.10;;;;;;;15.69;100.00;96044.25;5035876;28;20041;-79
2023/07/31 09:42:25;;;;;;;0.10;0.10;;;;;;;15.68;100.00;96056.16;5035283;28;20439;-78
2023/07/31 09:45:12;;;;;;;0.10;0.10;;;;;;;16.03;100.00;96054.03;5037871;28;20055;-79
2023/07/31 09:47:58;;;;;;;0.20;0.20;;;;;;;16.68;100.00;96052.19;5035507;28;20477;-80
2023/07/31 09:50:48;;;;;;;0.10;0.10;;;;;;;16.76;100.00;96053.44;5036686;28;20171;-80
2023/07/31 09:53:34;;;;;;;0.10;0.10;;;;;;;16.39;100.00;96036.19;5008259;28;20053;-78
2023/07/31 09:56:23;;;;;;;0.10;0.10;;;;;;;16.39;100.00;96047.00;5039571;28;20697;-79
2023/07/31 09:59:11;;;;;;;0.13;0.13;;;;;;;16.66;100.00;96035.47;5035089;28;20067;-79
2023/07/31 10:01:57;;;;;;;0.10;0.10;;;;;;;16.61;100.00;96032.06;5016078;28;20045;-78
2023/07/31 10:04:45;;;;;;;0.10;0.10;;;;;;;17.08;100.00;96027.44;5035692;28;20064;-78
2023/07/31 10:07:33;;;;;;;0.17;0.15;;;;;;;17.29;100.00;96025.94;5030285;28;20160;-80
2023/07/31 10:10:21;;;;;;;0.10;0.10;;;;;;;17.19;100.00;96016.09;5031300;28;20056;-80
2023/07/31 10:13:08;;;;;;;0.10;0.10;;;;;;;16.80;100.00;96026.59;5032932;28;20131;-78
2023/07/31 10:15:58;;;;;;;0.10;0.10;;;;;;;16.56;100.00;96032.13;5034697;28;20037;-80
2023/07/31 10:18:45;;;;;;;0.10;0.10;;;;;;;16.62;100.00;96025.53;5027941;28;20075;-79
2023/07/31 10:21:34;;;;;;;0.10;0.10;;;;;;;16.78;100.00;96018.81;5032553;28;20072;-79
2023/07/31 10:24:21;;;;;;;0.10;0.10;;;;;;;16.87;100.00;96022.41;5033522;28;20049;-80
2023/07/31 10:27:07;;;;;;;0.10;0.10;;;;;;;17.29;100.00;96004.31;5034207;28;20460;-80
2023/07/31 10:29:58;;;;;;;0.10;0.10;;;;;;;17.24;100.00;96021.44;5017312;28;20044;-78
2023/07/31 10:32:45;;;;;;;0.20;0.20;;;;;;;17.43;100.00;96010.50;5031464;28;20162;-79
2023/07/31 10:35:31;;;;;;;0.20;0.20;;;;;;;17.41;100.00;96012.69;5033382;28;20041;-79
2023/07/31 10:38:17;;;;;;;0.20;0.20;;;;;;;17.54;100.00;96009.19;5003601;28;20118;-78
2023/07/31 10:41:09;;;;;;;0.10;0.10;;;;;;;18.14;100.00;95999.22;5035107;28;20317;-79
2023/07/31 10:43:58;;;;;;;0.10;0.10;;;;;;;18.19;100.00;96004.50;5033926;28;20053;-79
2023/07/31 10:46:45;;;;;;;0.10;0.10;;;;;;;18.14;100.00;95993.81;5033763;28;20127;-78
2023/07/31 10:49:32;;;;;;;0.10;0.10;;;;;;;17.97;100.00;96005.28;5032207;28;20044;-78
2023/07/31 10:52:26;;;;;;;0.10;0.10;;;;;;;17.77;100.00;96001.16;5004937;28;20049;-78
2023/07/31 10:55:16;;;;;;;0.10;0.10;;;;;;;17.65;100.00;95990.00;5030801;28;20051;-80
2023/07/31 10:58:07;;;;;;;0.20;0.20;;;;;;;17.10;100.00;95995.50;5034270;28;20752;-79
2023/07/31 11:00:57;;;;;;;;;;;;;;;17.14;100.00;95969.47;5029392;28;20387;-80
2023/07/31 11:03:52;;;;;;;0.00;0.00;;;;;;;17.03;100.00;95976.19;5031718;28;19924;-79
2023/07/31 11:06:38;;;;;;;0.10;0.10;;;;;;;17.16;100.00;95980.78;5034874;28;20128;-80
2023/07/31 11:09:27;;;;;;;0.10;0.10;;;;;;;17.26;100.00;95980.56;5033275;28;20131;-80
2023/07/31 11:12:13;;;;;;;0.10;0.10;;;;;;;17.34;100.00;95977.16;5032620;28;20036;-79
2023/07/31 11:14:59;;;;;;;0.10;0.10;;;;;;;17.22;100.00;95974.19;5033805;28;20167;-80
2023/07/31 11:17:45;;;;;;;0.10;0.10;;;;;;;17.06;100.00;95981.00;5032981;28;20474;-81
2023/07/31 11:20:32;;;;;;;0.10;0.10;;;;;;;17.27;100.00;95963.22;5030849;28;20234;-79
2023/07/31 11:23:19;;;;;;;0.10;0.10;;;;;;;17.38;100.00;95971.94;5029679;28;20099;-79
2023/07/31 11:26:07;;;;;;;0.10;0.10;;;;;;;17.26;100.00;95959.72;5015085;28;20045;-79
2023/07/31 11:28:52;;;;;;;0.10;0.10;;;;;;;17.23;100.00;95970.38;5033551;28;20052;-79
2023/07/31 11:31:45;;;;;;;0.10;0.10;;;;;;;17.02;100.00;95969.97;5031773;28;20126;-79
2023/07/31 11:34:31;;;;;;;0.20;0.20;;;;;;;17.13;100.00;95973.28;5034886;28;20066;-79
2023/07/31 11:37:17;;;;;;;0.10;0.10;;;;;;;17.16;100.00;95975.38;5032993;28;20064;-80
2023/07/31 11:40:03;;;;;;;0.03;0.03;;;;;;;17.20;100.00;95973.69;5033673;28;20306;-80
2023/07/31 11:42:49;;;;;;;0.10;0.10;;;;;;;17.14;100.00;95966.78;5032273;28;20045;-80
2023/07/31 11:45:35;;;;;;;0.10;0.10;;;;;;;17.20;100.00;95965.56;5030732;28;20102;-79
2023/07/31 11:48:27;;;;;;;0.20;0.20;;;;;;;17.36;100.00;95979.56;5032143;28;20049;-78
2023/07/31 11:51:14;;;;;;;0.10;0.10;;;;;;;17.70;100.00;95979.09;5032916;28;20917;-80
2023/07/31 11:54:02;;;;;;;0.10;0.10;;;;;;;17.84;100.00;95969.06;5030037;28;20825;-78
2023/07/31 11:56:49;;;;;;;0.10;0.10;;;;;;;18.06;100.00;95974.47;5034020;28;20261;-80
2023/07/31 11:59:35;;;;;;;0.10;0.10;;;;;;;17.93;100.00;95971.81;5031402;28;20049;-79
2023/07/31 12:02:22;;;;;;;0.10;0.10;;;;;;;17.89;100.00;95976.22;5030982;28;20732;-79
2023/07/31 12:05:14;;;;;;;0.20;0.20;;;;;;;18.06;100.00;95968.28;5031017;28;20163;-79
2023/07/31 12:07:59;;;;;;;0.10;0.10;;;;;;;18.24;100.00;95956.44;5031152;28;20431;-79
2023/07/31 12:10:47;;;;;;;0.10;0.10;;;;;;;18.07;100.00;95946.31;5037187;28;20050;-78
2023/07/31 12:13:33;;;;;;;0.10;0.10;;;;;;;18.17;100.00;95947.94;5036608;28;20029;-79
2023/07/31 12:16:19;;;;;;;0.20;0.20;;;;;;;17.99;100.00;95949.75;5036404;28;20041;-79
2023/07/31 12:19:07;;;;;;;0.20;0.20;;;;;;;17.83;100.00;95947.72;5025439;28;20064;-78
2023/07/31 12:21:52;;;;;;;0.10;0.10;;;;;;;18.28;100.00;95945.78;5038672;28;20570;-78
2023/07/31 12:24:39;;;;;;;0.10;0.10;;;;;;;18.61;100.00;95933.53;5023047;28;20535;-78
2023/07/31 12:27:33;;;;;;;0.20;0.20;;;;;;;18.53;100.00;95942.44;5037444;28;20041;-78
2023/07/31 12:30:29;;;;;;;0.10;0.10;;;;;;;18.58;100.00;95944.19;5037916;28;20052;-79
2023/07/31 12:33:18;;;;;;;0.13;0.13;;;;;;;18.81;100.00;95937.63;5036486;28;20610;-78
2023/07/31 12:36:13;;;;;;;0.20;0.20;;;;;;;18.97;100.00;95946.13;5040163;28;20032;-79
2023/07/31 12:38:59;;;;;;;0.17;0.17;;;;;;;19.23;100.00;95948.13;5036827;28;20526;-79
2023/07/31 12:41:44;;;;;;;0.10;0.10;;;;;;;19.43;100.00;95942.09;5022346;28;20045;-78
2023/07/31 12:44:30;;;;;;;0.22;0.10;;;;;;;19.43;100.00;95947.50;5037366;28;20033;-79
2023/07/31 12:47:16;;;;;;;0.20;0.20;;;;;;;19.18;100.00;95946.34;5036315;28;20043;-78
2023/07/31 12:50:02;;;;;;;0.20;0.20;;;;;;;19.81;100.00;95941.50;5035900;28;20037;-79
2023/07/31 12:52:48;;;;;;;0.10;0.10;;;;;;;19.62;100.00;95948.06;5037443;28;20043;-79
2023/07/31 12:55:34;;;;;;;0.10;0.10;;;;;;;19.61;100.00;95940.22;5036293;28;20052;-77
2023/07/31 12:58:20;;;;;;;0.10;0.10;;;;;;;19.73;100.00;95941.19;5036338;28;20406;-79